sensor_id;sensor_type;location;lat;lon;timestamp;temperature;humidity
72277;SHT30;61204;49.980;8.358;2023-05-07T00:01:58;15.51;75.65
72277;SHT30;61204;49.980;8.358;2023-05-07T00:04:26;15.42;75.82
72277;SHT30;61204;49.980;8.358;2023-05-07T00:06:53;15.45;76.25
72277;SHT30;61204;49.980;8.358;2023-05-07T00:09:18;15.45;76.01
72277;SHT30;61204;49.980;8.358;2023-05-07T00:11:44;15.41;76.20
72277;SHT30;61204;49.980;8.358;2023-05-07T00:14:10;15.34;76.13
72277;SHT30;61204;49.980;8.358;2023-05-07T00:16:35;15.31;76.39
72277;SHT30;61204;49.980;8.358;2023-05-07T00:19:03;15.31;76.72
72277;SHT30;61204;49.980;8.358;2023-05-07T00:21:29;15.28;76.51
72277;SHT30;61204;49.980;8.358;2023-05-07T00:23:55;15.28;76.71
72277;SHT30;61204;49.980;8.358;2023-05-07T00:26:22;15.28;77.11
72277;SHT30;61204;49.980;8.358;2023-05-07T00:28:47;15.26;77.05
72277;SHT30;61204;49.980;8.358;2023-05-07T00:31:13;15.24;77.29
72277;SHT30;61204;49.980;8.358;2023-05-07T00:33:38;15.23;77.07
72277;SHT30;61204;49.980;8.358;2023-05-07T00:36:04;15.21;77.23
72277;SHT30;61204;49.980;8.358;2023-05-07T00:38:30;15.18;77.29
72277;SHT30;61204;49.980;8.358;2023-05-07T00:40:55;15.18;77.20
72277;SHT30;61204;49.980;8.358;2023-05-07T00:43:20;15.14;77.49
72277;SHT30;61204;49.980;8.358;2023-05-07T00:45:48;15.12;77.66
72277;SHT30;61204;49.980;8.358;2023-05-07T00:48:15;15.08;77.49
72277;SHT30;61204;49.980;8.358;2023-05-07T00:50:41;15.08;77.88
72277;SHT30;61204;49.980;8.358;2023-05-07T00:53:07;15.04;77.80
72277;SHT30;61204;49.980;8.358;2023-05-07T00:55:35;15.04;77.91
72277;SHT30;61204;49.980;8.358;2023-05-07T00:58:02;15.04;78.03
72277;SHT30;61204;49.980;8.358;2023-05-07T01:00:27;15.04;77.86
72277;SHT30;61204;49.980;8.358;2023-05-07T01:02:53;15.03;77.83
72277;SHT30;61204;49.980;8.358;2023-05-07T01:05:20;15.01;78.04
72277;SHT30;61204;49.980;8.358;2023-05-07T01:07:49;15.06;78.17
72277;SHT30;61204;49.980;8.358;2023-05-07T01:10:15;15.06;78.11
72277;SHT30;61204;49.980;8.358;2023-05-07T01:12:43;15.04;78.03
72277;SHT30;61204;49.980;8.358;2023-05-07T01:15:10;15.01;77.90
72277;SHT30;61204;49.980;8.358;2023-05-07T01:17:39;15.00;78.00
72277;SHT30;61204;49.980;8.358;2023-05-07T01:20:07;14.99;78.23
72277;SHT30;61204;49.980;8.358;2023-05-07T01:22:37;14.96;78.41
72277;SHT30;61204;49.980;8.358;2023-05-07T01:25:05;14.96;78.64
72277;SHT30;61204;49.980;8.358;2023-05-07T01:27:32;14.99;78.62
72277;SHT30;61204;49.980;8.358;2023-05-07T01:29:59;15.00;78.38
72277;SHT30;61204;49.980;8.358;2023-05-07T01:32:29;14.99;78.20
72277;SHT30;61204;49.980;8.358;2023-05-07T01:35:01;14.96;78.23
72277;SHT30;61204;49.980;8.358;2023-05-07T01:37:30;14.99;78.24
72277;SHT30;61204;49.980;8.358;2023-05-07T01:39:56;14.94;78.29
72277;SHT30;61204;49.980;8.358;2023-05-07T01:42:22;14.91;78.30
72277;SHT30;61204;49.980;8.358;2023-05-07T01:44:50;14.87;78.42
72277;SHT30;61204;49.980;8.358;2023-05-07T01:47:16;14.86;78.34
72277;SHT30;61204;49.980;8.358;2023-05-07T01:49:42;14.87;78.33
72277;SHT30;61204;49.980;8.358;2023-05-07T01:52:10;14.86;78.47
72277;SHT30;61204;49.980;8.358;2023-05-07T01:54:36;14.86;78.59
72277;SHT30;61204;49.980;8.358;2023-05-07T01:57:02;14.84;78.52
72277;SHT30;61204;49.980;8.358;2023-05-07T01:59:30;14.82;78.48
72277;SHT30;61204;49.980;8.358;2023-05-07T02:01:55;14.84;78.50
72277;SHT30;61204;49.980;8.358;2023-05-07T02:04:21;14.84;78.45
72277;SHT30;61204;49.980;8.358;2023-05-07T02:06:46;14.84;78.33
72277;SHT30;61204;49.980;8.358;2023-05-07T02:09:13;14.84;78.24
72277;SHT30;61204;49.980;8.358;2023-05-07T02:11:40;14.90;78.16
72277;SHT30;61204;49.980;8.358;2023-05-07T02:14:05;14.89;77.89
72277;SHT30;61204;49.980;8.358;2023-05-07T02:16:31;14.90;77.83
72277;SHT30;61204;49.980;8.358;2023-05-07T02:18:56;14.91;77.94
72277;SHT30;61204;49.980;8.358;2023-05-07T02:21:24;14.93;77.98
72277;SHT30;61204;49.980;8.358;2023-05-07T02:23:50;14.94;77.88
72277;SHT30;61204;49.980;8.358;2023-05-07T02:26:15;15.00;77.70
72277;SHT30;61204;49.980;8.358;2023-05-07T02:28:41;15.00;77.58
72277;SHT30;61204;49.980;8.358;2023-05-07T02:31:11;15.06;77.46
72277;SHT30;61204;49.980;8.358;2023-05-07T02:33:36;15.07;77.03
72277;SHT30;61204;49.980;8.358;2023-05-07T02:36:09;15.10;77.20
72277;SHT30;61204;49.980;8.358;2023-05-07T02:38:36;15.11;77.09
72277;SHT30;61204;49.980;8.358;2023-05-07T02:41:01;15.08;77.21
72277;SHT30;61204;49.980;8.358;2023-05-07T02:43:27;15.11;77.26
72277;SHT30;61204;49.980;8.358;2023-05-07T02:46:06;15.14;77.33
72277;SHT30;61204;49.980;8.358;2023-05-07T02:48:33;15.17;77.18
72277;SHT30;61204;49.980;8.358;2023-05-07T02:50:59;15.26;77.11
72277;SHT30;61204;49.980;8.358;2023-05-07T02:53:26;15.23;77.04
72277;SHT30;61204;49.980;8.358;2023-05-07T02:55:56;15.21;77.04
72277;SHT30;61204;49.980;8.358;2023-05-07T02:58:25;15.20;76.95
72277;SHT30;61204;49.980;8.358;2023-05-07T03:00:51;15.24;76.60
72277;SHT30;61204;49.980;8.358;2023-05-07T03:03:17;15.23;76.89
72277;SHT30;61204;49.980;8.358;2023-05-07T03:05:43;15.27;76.44
72277;SHT30;61204;49.980;8.358;2023-05-07T03:08:09;15.28;76.64
72277;SHT30;61204;49.980;8.358;2023-05-07T03:10:35;15.38;76.22
72277;SHT30;61204;49.980;8.358;2023-05-07T03:13:02;15.34;76.21
72277;SHT30;61204;49.980;8.358;2023-05-07T03:15:29;15.37;76.08
72277;SHT30;61204;49.980;8.358;2023-05-07T03:17:55;15.38;76.14
72277;SHT30;61204;49.980;8.358;2023-05-07T03:20:21;15.41;75.89
72277;SHT30;61204;49.980;8.358;2023-05-07T03:22:46;15.42;75.83
72277;SHT30;61204;49.980;8.358;2023-05-07T03:25:12;15.45;75.66
72277;SHT30;61204;49.980;8.358;2023-05-07T03:27:37;15.46;75.62
72277;SHT30;61204;49.980;8.358;2023-05-07T03:30:03;15.44;75.58
72277;SHT30;61204;49.980;8.358;2023-05-07T03:32:32;15.46;75.46
72277;SHT30;61204;49.980;8.358;2023-05-07T03:34:58;15.48;75.38
72277;SHT30;61204;49.980;8.358;2023-05-07T03:37:24;15.49;75.06
72277;SHT30;61204;49.980;8.358;2023-05-07T03:39:49;15.55;74.87
72277;SHT30;61204;49.980;8.358;2023-05-07T03:42:15;15.52;74.89
72277;SHT30;61204;49.980;8.358;2023-05-07T03:44:40;15.51;75.01
72277;SHT30;61204;49.980;8.358;2023-05-07T03:47:06;15.52;75.09
72277;SHT30;61204;49.980;8.358;2023-05-07T03:49:37;15.48;75.03
72277;SHT30;61204;49.980;8.358;2023-05-07T03:52:03;15.49;75.04
72277;SHT30;61204;49.980;8.358;2023-05-07T03:54:30;15.51;75.04
72277;SHT30;61204;49.980;8.358;2023-05-07T03:56:55;15.51;74.85
72277;SHT30;61204;49.980;8.358;2023-05-07T03:59:21;15.48;75.08
72277;SHT30;61204;49.980;8.358;2023-05-07T04:01:47;15.42;75.00
72277;SHT30;61204;49.980;8.358;2023-05-07T04:04:14;15.45;75.27
72277;SHT30;61204;49.980;8.358;2023-05-07T04:06:42;15.48;75.14
72277;SHT30;61204;49.980;8.358;2023-05-07T04:09:07;15.46;75.09
72277;SHT30;61204;49.980;8.358;2023-05-07T04:11:33;15.49;75.01
72277;SHT30;61204;49.980;8.358;2023-05-07T04:13:58;15.45;75.18
72277;SHT30;61204;49.980;8.358;2023-05-07T04:16:24;15.44;75.25
72277;SHT30;61204;49.980;8.358;2023-05-07T04:18:49;15.46;75.01
72277;SHT30;61204;49.980;8.358;2023-05-07T04:21:16;15.49;75.04
72277;SHT30;61204;49.980;8.358;2023-05-07T04:23:43;15.49;74.82
72277;SHT30;61204;49.980;8.358;2023-05-07T04:26:09;15.45;75.11
72277;SHT30;61204;49.980;8.358;2023-05-07T04:28:35;15.46;75.15
72277;SHT30;61204;49.980;8.358;2023-05-07T04:31:03;15.52;74.85
72277;SHT30;61204;49.980;8.358;2023-05-07T04:33:28;15.51;74.59
72277;SHT30;61204;49.980;8.358;2023-05-07T04:35:54;15.49;74.98
72277;SHT30;61204;49.980;8.358;2023-05-07T04:38:19;15.49;74.85
72277;SHT30;61204;49.980;8.358;2023-05-07T04:40:44;15.55;74.16
72277;SHT30;61204;49.980;8.358;2023-05-07T04:43:14;15.55;74.22
72277;SHT30;61204;49.980;8.358;2023-05-07T04:45:39;15.59;73.84
72277;SHT30;61204;49.980;8.358;2023-05-07T04:48:06;15.62;73.53
72277;SHT30;61204;49.980;8.358;2023-05-07T04:50:32;15.65;73.57
72277;SHT30;61204;49.980;8.358;2023-05-07T04:52:58;15.67;73.29
72277;SHT30;61204;49.980;8.358;2023-05-07T04:55:23;15.67;73.19
72277;SHT30;61204;49.980;8.358;2023-05-07T04:57:49;15.72;73.06
72277;SHT30;61204;49.980;8.358;2023-05-07T05:00:15;15.79;72.85
72277;SHT30;61204;49.980;8.358;2023-05-07T05:02:45;15.83;72.70
72277;SHT30;61204;49.980;8.358;2023-05-07T05:05:10;15.83;72.70
72277;SHT30;61204;49.980;8.358;2023-05-07T05:07:36;15.86;72.51
72277;SHT30;61204;49.980;8.358;2023-05-07T05:10:05;15.87;72.60
72277;SHT30;61204;49.980;8.358;2023-05-07T05:12:31;15.93;72.59
72277;SHT30;61204;49.980;8.358;2023-05-07T05:14:57;15.96;72.27
72277;SHT30;61204;49.980;8.358;2023-05-07T05:17:22;16.03;72.21
72277;SHT30;61204;49.980;8.358;2023-05-07T05:19:48;16.07;72.19
72277;SHT30;61204;49.980;8.358;2023-05-07T05:22:18;16.11;72.15
72277;SHT30;61204;49.980;8.358;2023-05-07T05:24:46;16.14;72.26
72277;SHT30;61204;49.980;8.358;2023-05-07T05:27:11;16.16;72.21
72277;SHT30;61204;49.980;8.358;2023-05-07T05:29:37;16.16;72.33
72277;SHT30;61204;49.980;8.358;2023-05-07T05:32:02;16.18;72.38
72277;SHT30;61204;49.980;8.358;2023-05-07T05:34:27;16.16;72.62
72277;SHT30;61204;49.980;8.358;2023-05-07T05:36:55;16.20;72.50
72277;SHT30;61204;49.980;8.358;2023-05-07T05:39:21;16.22;72.37
72277;SHT30;61204;49.980;8.358;2023-05-07T05:41:48;16.28;72.16
72277;SHT30;61204;49.980;8.358;2023-05-07T05:44:13;16.34;71.43
72277;SHT30;61204;49.980;8.358;2023-05-07T05:46:39;16.37;71.53
72277;SHT30;61204;49.980;8.358;2023-05-07T05:49:04;16.44;71.14
72277;SHT30;61204;49.980;8.358;2023-05-07T05:51:29;16.49;71.19
72277;SHT30;61204;49.980;8.358;2023-05-07T05:53:57;16.68;70.68
72277;SHT30;61204;49.980;8.358;2023-05-07T05:56:22;16.87;70.17
72277;SHT30;61204;49.980;8.358;2023-05-07T05:58:48;17.17;69.51
72277;SHT30;61204;49.980;8.358;2023-05-07T06:01:17;17.31;68.54
72277;SHT30;61204;49.980;8.358;2023-05-07T06:03:43;17.36;68.18
72277;SHT30;61204;49.980;8.358;2023-05-07T06:06:09;17.42;67.60
72277;SHT30;61204;49.980;8.358;2023-05-07T06:08:34;17.73;67.13
72277;SHT30;61204;49.980;8.358;2023-05-07T06:11:01;17.97;66.36
72277;SHT30;61204;49.980;8.358;2023-05-07T06:13:27;18.04;65.61
72277;SHT30;61204;49.980;8.358;2023-05-07T06:15:52;17.89;66.21
72277;SHT30;61204;49.980;8.358;2023-05-07T06:18:18;18.01;65.28
72277;SHT30;61204;49.980;8.358;2023-05-07T06:20:43;18.06;65.06
72277;SHT30;61204;49.980;8.358;2023-05-07T06:23:09;18.14;64.89
72277;SHT30;61204;49.980;8.358;2023-05-07T06:25:34;18.48;63.81
72277;SHT30;61204;49.980;8.358;2023-05-07T06:28:00;18.52;64.31
72277;SHT30;61204;49.980;8.358;2023-05-07T06:30:25;18.86;63.18
72277;SHT30;61204;49.980;8.358;2023-05-07T06:32:51;19.14;61.98
72277;SHT30;61204;49.980;8.358;2023-05-07T06:35:19;19.18;61.33
72277;SHT30;61204;49.980;8.358;2023-05-07T06:37:45;18.83;61.96
72277;SHT30;61204;49.980;8.358;2023-05-07T06:40:11;18.97;62.33
72277;SHT30;61204;49.980;8.358;2023-05-07T06:42:36;18.51;63.82
72277;SHT30;61204;49.980;8.358;2023-05-07T06:45:03;18.83;63.05
72277;SHT30;61204;49.980;8.358;2023-05-07T06:47:29;18.51;63.45
72277;SHT30;61204;49.980;8.358;2023-05-07T06:49:55;18.35;64.08
72277;SHT30;61204;49.980;8.358;2023-05-07T06:52:23;18.30;64.66
72277;SHT30;61204;49.980;8.358;2023-05-07T06:54:51;18.55;63.95
72277;SHT30;61204;49.980;8.358;2023-05-07T06:57:16;18.56;63.91
72277;SHT30;61204;49.980;8.358;2023-05-07T06:59:42;18.66;64.50
72277;SHT30;61204;49.980;8.358;2023-05-07T07:02:07;18.80;63.35
72277;SHT30;61204;49.980;8.358;2023-05-07T07:04:33;18.90;63.73
72277;SHT30;61204;49.980;8.358;2023-05-07T07:06:59;18.82;63.30
72277;SHT30;61204;49.980;8.358;2023-05-07T07:09:24;18.66;63.98
72277;SHT30;61204;49.980;8.358;2023-05-07T07:11:52;18.68;64.22
72277;SHT30;61204;49.980;8.358;2023-05-07T07:14:17;18.75;63.45
72277;SHT30;61204;49.980;8.358;2023-05-07T07:16:43;18.63;63.23
72277;SHT30;61204;49.980;8.358;2023-05-07T07:19:11;18.51;63.43
72277;SHT30;61204;49.980;8.358;2023-05-07T07:21:37;18.27;63.71
72277;SHT30;61204;49.980;8.358;2023-05-07T07:24:03;18.03;64.61
72277;SHT30;61204;49.980;8.358;2023-05-07T07:26:28;18.31;63.47
72277;SHT30;61204;49.980;8.358;2023-05-07T07:28:54;18.33;63.41
72277;SHT30;61204;49.980;8.358;2023-05-07T07:31:19;18.56;62.66
72277;SHT30;61204;49.980;8.358;2023-05-07T07:33:44;18.77;61.60
72277;SHT30;61204;49.980;8.358;2023-05-07T07:36:10;18.79;61.88
72277;SHT30;61204;49.980;8.358;2023-05-07T07:38:36;18.51;62.22
72277;SHT30;61204;49.980;8.358;2023-05-07T07:41:01;18.52;62.16
72277;SHT30;61204;49.980;8.358;2023-05-07T07:43:27;18.47;62.64
72277;SHT30;61204;49.980;8.358;2023-05-07T07:45:52;18.13;63.45
72277;SHT30;61204;49.980;8.358;2023-05-07T07:48:18;18.23;63.19
72277;SHT30;61204;49.980;8.358;2023-05-07T07:50:43;18.31;62.80
72277;SHT30;61204;49.980;8.358;2023-05-07T07:53:11;18.16;63.26
72277;SHT30;61204;49.980;8.358;2023-05-07T07:55:40;18.25;63.46
72277;SHT30;61204;49.980;8.358;2023-05-07T07:58:05;18.40;63.82
72277;SHT30;61204;49.980;8.358;2023-05-07T08:00:31;18.48;62.98
72277;SHT30;61204;49.980;8.358;2023-05-07T08:02:58;18.37;62.91
72277;SHT30;61204;49.980;8.358;2023-05-07T08:05:28;18.13;63.11
72277;SHT30;61204;49.980;8.358;2023-05-07T08:07:54;18.20;63.75
72277;SHT30;61204;49.980;8.358;2023-05-07T08:10:24;18.33;63.57
72277;SHT30;61204;49.980;8.358;2023-05-07T08:12:50;18.31;63.89
72277;SHT30;61204;49.980;8.358;2023-05-07T08:15:16;18.35;63.98
72277;SHT30;61204;49.980;8.358;2023-05-07T08:17:43;18.41;62.94
72277;SHT30;61204;49.980;8.358;2023-05-07T08:20:09;18.56;63.06
72277;SHT30;61204;49.980;8.358;2023-05-07T08:22:35;19.00;61.31
72277;SHT30;61204;49.980;8.358;2023-05-07T08:25:06;18.99;61.49
72277;SHT30;61204;49.980;8.358;2023-05-07T08:27:32;19.04;60.95
72277;SHT30;61204;49.980;8.358;2023-05-07T08:29:59;18.95;61.78
72277;SHT30;61204;49.980;8.358;2023-05-07T08:32:27;19.20;60.91
72277;SHT30;61204;49.980;8.358;2023-05-07T08:34:52;19.58;59.93
72277;SHT30;61204;49.980;8.358;2023-05-07T08:37:18;19.93;59.01
72277;SHT30;61204;49.980;8.358;2023-05-07T08:39:43;19.76;59.23
72277;SHT30;61204;49.980;8.358;2023-05-07T08:42:09;19.92;58.75
72277;SHT30;61204;49.980;8.358;2023-05-07T08:44:38;20.06;58.49
72277;SHT30;61204;49.980;8.358;2023-05-07T08:47:06;20.24;57.64
72277;SHT30;61204;49.980;8.358;2023-05-07T08:49:33;20.52;58.05
72277;SHT30;61204;49.980;8.358;2023-05-07T08:52:00;20.67;57.15
72277;SHT30;61204;49.980;8.358;2023-05-07T08:54:26;20.72;57.64
72277;SHT30;61204;49.980;8.358;2023-05-07T08:56:53;20.52;57.61
72277;SHT30;61204;49.980;8.358;2023-05-07T08:59:18;20.80;57.97
72277;SHT30;61204;49.980;8.358;2023-05-07T09:01:43;21.06;57.30
72277;SHT30;61204;49.980;8.358;2023-05-07T09:04:09;21.24;55.26
72277;SHT30;61204;49.980;8.358;2023-05-07T09:06:35;21.57;54.81
72277;SHT30;61204;49.980;8.358;2023-05-07T09:09:01;21.17;55.63
72277;SHT30;61204;49.980;8.358;2023-05-07T09:11:30;21.44;55.28
72277;SHT30;61204;49.980;8.358;2023-05-07T09:13:58;21.03;55.40
72277;SHT30;61204;49.980;8.358;2023-05-07T09:16:29;21.17;55.38
72277;SHT30;61204;49.980;8.358;2023-05-07T09:18:58;21.42;54.92
72277;SHT30;61204;49.980;8.358;2023-05-07T09:21:25;21.54;54.48
72277;SHT30;61204;49.980;8.358;2023-05-07T09:23:54;21.83;54.67
72277;SHT30;61204;49.980;8.358;2023-05-07T09:26:24;21.85;54.55
72277;SHT30;61204;49.980;8.358;2023-05-07T09:28:53;22.29;53.05
72277;SHT30;61204;49.980;8.358;2023-05-07T09:31:21;22.57;52.89
72277;SHT30;61204;49.980;8.358;2023-05-07T09:33:48;22.58;51.29
72277;SHT30;61204;49.980;8.358;2023-05-07T09:36:16;22.61;51.98
72277;SHT30;61204;49.980;8.358;2023-05-07T09:38:42;23.16;51.91
72277;SHT30;61204;49.980;8.358;2023-05-07T09:41:10;23.62;51.34
72277;SHT30;61204;49.980;8.358;2023-05-07T09:43:38;22.98;50.63
72277;SHT30;61204;49.980;8.358;2023-05-07T09:48:41;23.12;52.11
72277;SHT30;61204;49.980;8.358;2023-05-07T09:51:25;22.30;52.66
72277;SHT30;61204;49.980;8.358;2023-05-07T09:53:56;22.73;51.43
72277;SHT30;61204;49.980;8.358;2023-05-07T09:56:29;23.27;50.81
72277;SHT30;61204;49.980;8.358;2023-05-07T09:58:58;22.68;52.38
72277;SHT30;61204;49.980;8.358;2023-05-07T10:01:27;23.12;51.31
72277;SHT30;61204;49.980;8.358;2023-05-07T10:03:54;23.96;49.26
72277;SHT30;61204;49.980;8.358;2023-05-07T10:06:22;24.38;47.35
72277;SHT30;61204;49.980;8.358;2023-05-07T10:08:48;24.75;47.77
72277;SHT30;61204;49.980;8.358;2023-05-07T10:11:16;24.53;48.72
72277;SHT30;61204;49.980;8.358;2023-05-07T10:13:46;24.08;50.51
72277;SHT30;61204;49.980;8.358;2023-05-07T10:16:14;23.64;49.18
72277;SHT30;61204;49.980;8.358;2023-05-07T10:18:40;23.76;49.24
72277;SHT30;61204;49.980;8.358;2023-05-07T10:21:20;24.67;47.11
72277;SHT30;61204;49.980;8.358;2023-05-07T10:23:56;24.76;46.90
72277;SHT30;61204;49.980;8.358;2023-05-07T10:26:28;25.13;46.59
72277;SHT30;61204;49.980;8.358;2023-05-07T10:29:10;26.00;44.92
72277;SHT30;61204;49.980;8.358;2023-05-07T10:31:52;26.26;44.55
72277;SHT30;61204;49.980;8.358;2023-05-07T10:34:24;25.78;45.15
72277;SHT30;61204;49.980;8.358;2023-05-07T10:36:55;25.58;45.45
72277;SHT30;61204;49.980;8.358;2023-05-07T10:39:21;25.99;43.65
72277;SHT30;61204;49.980;8.358;2023-05-07T10:41:48;26.16;43.77
72277;SHT30;61204;49.980;8.358;2023-05-07T10:44:34;26.81;42.38
72277;SHT30;61204;49.980;8.358;2023-05-07T10:47:10;26.58;42.69
72277;SHT30;61204;49.980;8.358;2023-05-07T10:52:31;26.22;43.33
72277;SHT30;61204;49.980;8.358;2023-05-07T10:57:42;26.71;42.97
72277;SHT30;61204;49.980;8.358;2023-05-07T11:05:34;26.65;42.37
72277;SHT30;61204;49.980;8.358;2023-05-07T11:08:03;25.60;44.16
72277;SHT30;61204;49.980;8.358;2023-05-07T11:13:17;26.47;42.64
72277;SHT30;61204;49.980;8.358;2023-05-07T11:15:47;25.60;43.58
72277;SHT30;61204;49.980;8.358;2023-05-07T11:18:17;25.68;44.18
72277;SHT30;61204;49.980;8.358;2023-05-07T11:20:53;26.16;42.90
72277;SHT30;61204;49.980;8.358;2023-05-07T11:26:00;26.30;42.08
72277;SHT30;61204;49.980;8.358;2023-05-07T11:28:28;26.37;43.30
72277;SHT30;61204;49.980;8.358;2023-05-07T11:30:54;27.13;42.00
72277;SHT30;61204;49.980;8.358;2023-05-07T11:33:19;27.72;40.57
72277;SHT30;61204;49.980;8.358;2023-05-07T11:35:45;27.49;39.97
72277;SHT30;61204;49.980;8.358;2023-05-07T11:38:12;27.30;39.59
72277;SHT30;61204;49.980;8.358;2023-05-07T11:40:49;28.08;39.25
72277;SHT30;61204;49.980;8.358;2023-05-07T11:43:15;28.90;37.24
72277;SHT30;61204;49.980;8.358;2023-05-07T11:45:41;28.87;38.50
72277;SHT30;61204;49.980;8.358;2023-05-07T11:48:06;28.33;37.97
72277;SHT30;61204;49.980;8.358;2023-05-07T11:50:32;28.25;39.20
72277;SHT30;61204;49.980;8.358;2023-05-07T11:52:58;28.40;39.81
72277;SHT30;61204;49.980;8.358;2023-05-07T11:55:25;27.17;40.33
72277;SHT30;61204;49.980;8.358;2023-05-07T11:57:52;28.27;38.74
72277;SHT30;61204;49.980;8.358;2023-05-07T12:00:18;28.40;38.13
72277;SHT30;61204;49.980;8.358;2023-05-07T12:02:45;27.30;40.44
72277;SHT30;61204;49.980;8.358;2023-05-07T12:05:11;27.80;38.38
72277;SHT30;61204;49.980;8.358;2023-05-07T12:07:37;28.37;37.95
72277;SHT30;61204;49.980;8.358;2023-05-07T12:10:06;28.71;36.85
72277;SHT30;61204;49.980;8.358;2023-05-07T12:12:38;28.64;37.01
72277;SHT30;61204;49.980;8.358;2023-05-07T12:15:05;28.56;38.42
72277;SHT30;61204;49.980;8.358;2023-05-07T12:17:31;28.17;38.48
72277;SHT30;61204;49.980;8.358;2023-05-07T12:19:56;27.95;38.05
72277;SHT30;61204;49.980;8.358;2023-05-07T12:22:22;27.43;37.11
72277;SHT30;61204;49.980;8.358;2023-05-07T12:24:49;27.33;37.77
72277;SHT30;61204;49.980;8.358;2023-05-07T12:27:23;27.47;37.88
72277;SHT30;61204;49.980;8.358;2023-05-07T12:29:50;26.96;39.55
72277;SHT30;61204;49.980;8.358;2023-05-07T12:32:17;27.23;39.30
72277;SHT30;61204;49.980;8.358;2023-05-07T12:34:45;27.25;39.17
72277;SHT30;61204;49.980;8.358;2023-05-07T12:37:11;27.32;36.92
72277;SHT30;61204;49.980;8.358;2023-05-07T12:40:02;27.76;37.79
72277;SHT30;61204;49.980;8.358;2023-05-07T12:42:35;28.36;36.30
72277;SHT30;61204;49.980;8.358;2023-05-07T12:45:11;28.36;36.92
72277;SHT30;61204;49.980;8.358;2023-05-07T12:47:44;27.02;38.81
72277;SHT30;61204;49.980;8.358;2023-05-07T12:50:11;26.92;40.20
72277;SHT30;61204;49.980;8.358;2023-05-07T12:52:39;26.85;38.78
72277;SHT30;61204;49.980;8.358;2023-05-07T12:55:08;26.99;38.37
72277;SHT30;61204;49.980;8.358;2023-05-07T12:57:38;27.84;37.50
72277;SHT30;61204;49.980;8.358;2023-05-07T13:00:06;27.99;37.71
72277;SHT30;61204;49.980;8.358;2023-05-07T13:02:42;28.17;37.54
72277;SHT30;61204;49.980;8.358;2023-05-07T13:05:11;27.99;37.18
72277;SHT30;61204;49.980;8.358;2023-05-07T13:07:37;28.63;36.40
72277;SHT30;61204;49.980;8.358;2023-05-07T13:10:04;28.39;36.01
72277;SHT30;61204;49.980;8.358;2023-05-07T13:12:29;27.55;37.87
72277;SHT30;61204;49.980;8.358;2023-05-07T13:14:55;27.62;37.04
72277;SHT30;61204;49.980;8.358;2023-05-07T13:17:20;27.19;37.74
72277;SHT30;61204;49.980;8.358;2023-05-07T13:19:46;27.91;36.86
72277;SHT30;61204;49.980;8.358;2023-05-07T13:22:11;27.30;37.10
72277;SHT30;61204;49.980;8.358;2023-05-07T13:24:39;27.29;36.19
72277;SHT30;61204;49.980;8.358;2023-05-07T13:27:06;26.89;36.03
72277;SHT30;61204;49.980;8.358;2023-05-07T13:29:32;27.50;36.03
72277;SHT30;61204;49.980;8.358;2023-05-07T13:31:57;27.37;37.06
72277;SHT30;61204;49.980;8.358;2023-05-07T13:34:23;28.29;36.23
72277;SHT30;61204;49.980;8.358;2023-05-07T13:36:48;28.47;35.45
72277;SHT30;61204;49.980;8.358;2023-05-07T13:39:14;27.70;35.27
72277;SHT30;61204;49.980;8.358;2023-05-07T13:41:39;26.99;36.54
72277;SHT30;61204;49.980;8.358;2023-05-07T13:44:05;27.37;36.77
72277;SHT30;61204;49.980;8.358;2023-05-07T13:46:30;27.88;34.99
72277;SHT30;61204;49.980;8.358;2023-05-07T13:48:56;27.77;34.89
72277;SHT30;61204;49.980;8.358;2023-05-07T13:51:21;27.70;34.70
72277;SHT30;61204;49.980;8.358;2023-05-07T13:53:47;28.71;34.79
72277;SHT30;61204;49.980;8.358;2023-05-07T13:56:14;28.79;33.90
72277;SHT30;61204;49.980;8.358;2023-05-07T13:58:40;28.46;33.83
72277;SHT30;61204;49.980;8.358;2023-05-07T14:01:06;29.12;33.41
72277;SHT30;61204;49.980;8.358;2023-05-07T14:03:31;29.74;33.19
72277;SHT30;61204;49.980;8.358;2023-05-07T14:05:59;29.87;30.88
72277;SHT30;61204;49.980;8.358;2023-05-07T14:08:26;28.99;34.32
72277;SHT30;61204;49.980;8.358;2023-05-07T14:10:52;28.74;34.30
72277;SHT30;61204;49.980;8.358;2023-05-07T14:13:18;28.12;35.46
72277;SHT30;61204;49.980;8.358;2023-05-07T14:15:43;27.50;35.61
72277;SHT30;61204;49.980;8.358;2023-05-07T14:18:13;27.42;35.36
72277;SHT30;61204;49.980;8.358;2023-05-07T14:20:40;27.36;34.72
72277;SHT30;61204;49.980;8.358;2023-05-07T14:23:06;27.20;36.39
72277;SHT30;61204;49.980;8.358;2023-05-07T14:25:31;26.67;37.51
72277;SHT30;61204;49.980;8.358;2023-05-07T14:27:57;26.53;37.52
72277;SHT30;61204;49.980;8.358;2023-05-07T14:30:22;26.99;37.76
72277;SHT30;61204;49.980;8.358;2023-05-07T14:32:49;26.74;37.65
72277;SHT30;61204;49.980;8.358;2023-05-07T14:35:16;26.89;38.89
72277;SHT30;61204;49.980;8.358;2023-05-07T14:37:42;26.48;38.16
72277;SHT30;61204;49.980;8.358;2023-05-07T14:40:08;26.80;38.67
72277;SHT30;61204;49.980;8.358;2023-05-07T14:42:35;27.02;38.28
72277;SHT30;61204;49.980;8.358;2023-05-07T14:45:03;26.92;38.79
72277;SHT30;61204;49.980;8.358;2023-05-07T14:47:28;27.10;36.39
72277;SHT30;61204;49.980;8.358;2023-05-07T14:49:54;27.40;36.31
72277;SHT30;61204;49.980;8.358;2023-05-07T14:52:22;26.55;38.78
72277;SHT30;61204;49.980;8.358;2023-05-07T14:54:48;26.47;40.16
72277;SHT30;61204;49.980;8.358;2023-05-07T14:57:13;26.81;40.70
72277;SHT30;61204;49.980;8.358;2023-05-07T14:59:43;26.30;41.97
72277;SHT30;61204;49.980;8.358;2023-05-07T15:02:12;26.19;42.24
72277;SHT30;61204;49.980;8.358;2023-05-07T15:04:38;26.36;42.10
72277;SHT30;61204;49.980;8.358;2023-05-07T15:07:11;26.50;41.42
72277;SHT30;61204;49.980;8.358;2023-05-07T15:09:37;25.95;41.71
72277;SHT30;61204;49.980;8.358;2023-05-07T15:12:05;25.88;42.04
72277;SHT30;61204;49.980;8.358;2023-05-07T15:14:30;25.99;42.37
72277;SHT30;61204;49.980;8.358;2023-05-07T15:16:56;25.98;42.28
72277;SHT30;61204;49.980;8.358;2023-05-07T15:19:21;25.81;42.87
72277;SHT30;61204;49.980;8.358;2023-05-07T15:21:47;25.92;42.76
72277;SHT30;61204;49.980;8.358;2023-05-07T15:24:12;25.60;43.03
72277;SHT30;61204;49.980;8.358;2023-05-07T15:26:38;25.26;43.81
72277;SHT30;61204;49.980;8.358;2023-05-07T15:29:03;25.19;44.06
72277;SHT30;61204;49.980;8.358;2023-05-07T15:31:35;25.27;44.21
72277;SHT30;61204;49.980;8.358;2023-05-07T15:34:02;25.26;44.17
72277;SHT30;61204;49.980;8.358;2023-05-07T15:36:28;25.02;44.24
72277;SHT30;61204;49.980;8.358;2023-05-07T15:38:53;25.06;44.80
72277;SHT30;61204;49.980;8.358;2023-05-07T15:41:19;24.98;44.26
72277;SHT30;61204;49.980;8.358;2023-05-07T15:43:50;25.02;44.60
72277;SHT30;61204;49.980;8.358;2023-05-07T15:46:21;24.74;45.12
72277;SHT30;61204;49.980;8.358;2023-05-07T15:48:51;24.67;44.76